Time;durP1;ratioP1;P1;durP2;ratioP2;P2;SDS_P1;SDS_P2;PMS_P1;PMS_P2;Temp;Humidity;BMP_temperature;BMP_pressure;BME280_temperature;BME280_humidity;BME280_pressure;Samples;Min_cycle;Max_cycle;Signal;HPM_P1;HPM_P2
2023/07/06 00:00:51;;;;;;;13.48;11.05;;;;;;;20.37;63.31;100137.69;5095610;28;20097;-63
2023/07/06 00:03:17;;;;;;;14.45;10.52;;;;;;;20.32;63.56;100134.69;5094316;28;20036;-62
2023/07/06 00:05:44;;;;;;;17.20;11.05;;;;;;;20.28;63.96;100142.34;5095588;28;20058;-62
2023/07/06 00:08:16;;;;;;;15.88;11.32;;;;;;;20.37;64.12;100151.31;5093644;28;20035;-62
2023/07/06 00:10:46;;;;;;;16.23;11.27;;;;;;;20.36;64.08;100146.88;5089888;28;20464;-63
2023/07/06 00:13:12;;;;;;;12.95;10.68;;;;;;;20.29;63.73;100157.63;5084921;28;20036;-62
2023/07/06 00:15:42;;;;;;;14.25;11.60;;;;;;;20.27;64.01;100164.28;5094588;28;20123;-61
2023/07/06 00:18:09;;;;;;;16.98;11.13;;;;;;;20.25;64.31;100160.88;5095558;28;20103;-62
2023/07/06 00:20:37;;;;;;;14.07;10.82;;;;;;;20.17;64.47;100146.31;5077497;28;20097;-63
2023/07/06 00:23:04;;;;;;;16.27;11.48;;;;;;;20.21;64.24;100155.81;5095803;28;20489;-63
2023/07/06 00:25:29;;;;;;;15.88;11.35;;;;;;;20.18;64.62;100148.00;5094162;28;20035;-63
2023/07/06 00:27:58;;;;;;;12.38;10.75;;;;;;;20.17;64.49;100153.63;5093070;28;20039;-63
2023/07/06 00:30:40;;;;;;;13.68;11.40;;;;;;;20.17;64.94;100168.06;5095503;28;20028;-62
2023/07/06 00:33:07;;;;;;;18.23;11.55;;;;;;;20.19;64.75;100159.75;5095240;28;20035;-62
2023/07/06 00:35:33;;;;;;;15.38;11.35;;;;;;;20.14;64.60;100160.28;5095276;28;20028;-62
2023/07/06 00:37:59;;;;;;;14.52;11.35;;;;;;;20.11;64.92;100163.34;5093035;28;20032;-63
2023/07/06 00:40:31;;;;;;;15.85;11.02;;;;;;;20.13;64.76;100168.59;5095246;28;20331;-63
2023/07/06 00:42:56;;;;;;;13.43;10.75;;;;;;;20.03;65.45;100155.25;5095252;28;20059;-62
2023/07/06 00:45:22;;;;;;;17.55;11.23;;;;;;;20.07;65.39;100160.13;5093743;28;20090;-63
2023/07/06 00:47:56;;;;;;;13.23;10.20;;;;;;;20.10;65.19;100166.22;5094613;28;20028;-62
2023/07/06 00:50:25;;;;;;;17.42;10.88;;;;;;;20.06;65.23;100180.19;5095354;28;20032;-62
2023/07/06 00:52:54;;;;;;;17.13;11.63;;;;;;;20.02;65.42;100169.88;5093035;28;20460;-62
2023/07/06 00:55:26;;;;;;;13.43;11.90;;;;;;;20.04;65.56;100171.34;5094689;28;20043;-62
2023/07/06 00:57:58;;;;;;;14.88;11.98;;;;;;;19.85;65.17;100137.28;5093521;28;20418;-62
2023/07/06 01:00:23;;;;;;;18.60;11.18;;;;;;;20.00;65.31;100175.47;5095379;28;20096;-62
2023/07/06 01:02:57;;;;;;;17.65;11.60;;;;;;;19.98;65.92;100172.06;5092937;28;20023;-62
2023/07/06 01:05:25;;;;;;;18.52;11.80;;;;;;;19.98;65.83;100176.66;5094390;28;20048;-63
2023/07/06 01:07:54;;;;;;;19.92;11.60;;;;;;;19.97;66.05;100177.69;5094397;28;20455;-63
2023/07/06 01:10:20;;;;;;;20.50;12.15;;;;;;;19.73;65.99;100134.13;5094361;28;20039;-63
2023/07/06 01:12:46;;;;;;;16.92;12.13;;;;;;;19.94;66.26;100173.47;5093982;28;20036;-62
2023/07/06 01:15:12;;;;;;;16.38;12.07;;;;;;;19.74;66.06;100132.22;5094235;28;20032;-62
2023/07/06 01:17:57;;;;;;;19.88;11.35;;;;;;;20.01;66.24;100171.72;5094305;28;20450;-64
2023/07/06 01:20:30;;;;;;;19.08;12.02;;;;;;;20.03;66.25;100174.28;5093088;28;20027;-62
2023/07/06 01:23:17;;;;;;;15.77;12.70;;;;;;;20.10;66.07;100169.81;5094171;28;20039;-62
2023/07/06 01:25:59;;;;;;;19.13;11.82;;;;;;;20.07;65.78;100175.59;5093842;28;20028;-62
2023/07/06 01:28:30;;;;;;;18.52;12.38;;;;;;;20.06;66.16;100163.03;5077341;28;20032;-62
2023/07/06 01:31:17;;;;;;;15.43;11.48;;;;;;;20.12;66.20;100165.03;5087066;28;20106;-62
2023/07/06 01:34:07;;;;;;;14.80;11.40;;;;;;;20.11;65.92;100165.22;5093812;28;20040;-63
2023/07/06 01:36:54;;;;;;;15.50;11.25;;;;;;;20.19;65.86;100157.03;5061206;28;20049;-62
2023/07/06 01:39:26;;;;;;;16.85;11.95;;;;;;;20.16;66.13;100170.97;5093433;28;20130;-63
2023/07/06 01:42:12;;;;;;;16.48;11.65;;;;;;;20.26;65.91;100170.75;5093822;28;20028;-63
2023/07/06 01:44:45;;;;;;;18.45;11.85;;;;;;;20.20;65.43;100166.88;5093944;28;20029;-63
2023/07/06 01:47:11;;;;;;;15.88;11.70;;;;;;;20.17;65.95;100159.09;5093188;28;20040;-64
2023/07/06 01:49:37;;;;;;;17.75;12.27;;;;;;;20.23;65.69;100169.22;5093116;28;20351;-63
2023/07/06 01:52:24;;;;;;;20.45;12.18;;;;;;;20.40;65.75;100172.69;5091941;28;20038;-62
2023/07/06 01:55:20;;;;;;;15.63;12.20;;;;;;;20.42;65.54;100178.78;5093390;28;20465;-63
2023/07/06 01:57:55;;;;;;;16.77;11.35;;;;;;;20.50;65.62;100177.91;5079724;28;20123;-63
2023/07/06 02:00:22;;;;;;;15.83;11.60;;;;;;;20.41;65.08;100171.66;5091814;28;20066;-61
2023/07/06 02:02:51;;;;;;;20.90;11.75;;;;;;;20.50;65.08;100172.47;5092386;28;20420;-62
2023/07/06 02:05:19;;;;;;;12.63;11.32;;;;;;;20.56;64.91;100173.63;5093323;28;20101;-63
2023/07/06 02:07:45;;;;;;;21.00;12.15;;;;;;;20.61;64.73;100176.63;5093735;28;20032;-63
2023/07/06 02:10:18;;;;;;;15.65;11.55;;;;;;;20.77;64.60;100181.09;5093549;28;20448;-64
2023/07/06 02:12:47;;;;;;;16.95;11.48;;;;;;;20.77;64.39;100181.09;5093040;28;20412;-62
2023/07/06 02:15:16;;;;;;;16.65;11.30;;;;;;;20.83;64.12;100177.66;5091597;28;20054;-64
2023/07/06 02:17:46;;;;;;;17.40;11.52;;;;;;;20.95;64.08;100178.06;5093637;28;20043;-62
2023/07/06 02:20:32;;;;;;;18.63;11.65;;;;;;;21.07;63.74;100173.91;5078032;28;20055;-62
2023/07/06 02:22:57;;;;;;;16.42;11.68;;;;;;;21.23;63.16;100172.06;5091655;28;20024;-63
2023/07/06 02:25:23;;;;;;;15.93;11.15;;;;;;;21.36;62.58;100169.53;5090472;28;20444;-62
2023/07/06 02:27:49;;;;;;;16.77;11.20;;;;;;;21.55;62.10;100175.47;5092283;28;20039;-62
2023/07/06 02:30:14;;;;;;;15.63;11.63;;;;;;;21.68;61.58;100168.53;5092881;28;20445;-61
2023/07/06 02:32:40;;;;;;;18.17;11.60;;;;;;;21.88;60.84;100176.97;5092193;28;20036;-63
2023/07/06 02:35:09;;;;;;;15.40;11.23;;;;;;;22.13;60.33;100187.56;5093065;28;20020;-63
2023/07/06 02:37:36;;;;;;;14.93;11.52;;;;;;;22.37;59.65;100170.00;5091302;28;20084;-62
2023/07/06 02:40:02;;;;;;;16.13;11.02;;;;;;;22.69;58.71;100177.91;5092651;28;20028;-62
2023/07/06 02:42:29;;;;;;;13.48;11.25;;;;;;;22.88;58.21;100171.78;5092598;28;20166;-63
2023/07/06 02:44:57;;;;;;;14.00;10.07;;;;;;;23.11;57.57;100175.31;5092911;28;20119;-63
2023/07/06 02:47:22;;;;;;;13.93;10.90;;;;;;;23.34;56.89;100178.69;5093009;28;20032;-63
2023/07/06 02:49:48;;;;;;;17.27;11.32;;;;;;;23.44;55.97;100166.56;5092576;28;20071;-64
2023/07/06 02:52:14;;;;;;;17.35;10.25;;;;;;;23.54;55.47;100177.97;5089716;28;20056;-64
2023/07/06 02:54:39;;;;;;;18.17;11.30;;;;;;;23.58;55.60;100183.88;5092186;28;20032;-63
2023/07/06 02:57:05;;;;;;;13.93;10.93;;;;;;;23.51;55.96;100181.13;5092083;28;20363;-63
2023/07/06 02:59:30;;;;;;;15.43;11.60;;;;;;;23.51;55.85;100181.13;5092487;28;20039;-62
2023/07/06 03:01:57;;;;;;;16.38;11.23;;;;;;;23.53;55.51;100175.47;5091195;28;20028;-62
2023/07/06 03:04:23;;;;;;;18.00;11.32;;;;;;;23.71;55.52;100183.94;5092407;28;20059;-62
2023/07/06 03:06:49;;;;;;;17.35;11.43;;;;;;;24.01;55.04;100189.19;5092655;28;20147;-63
2023/07/06 03:09:14;;;;;;;16.83;11.88;;;;;;;24.30;53.80;100189.94;5092454;28;20051;-64
2023/07/06 03:11:44;;;;;;;20.13;11.63;;;;;;;24.66;52.62;100187.91;5092638;28;20040;-63
2023/07/06 03:14:13;;;;;;;19.92;11.25;;;;;;;24.96;51.91;100197.63;5092364;28;20035;-63
2023/07/06 03:16:41;;;;;;;18.25;10.57;;;;;;;25.28;51.17;100186.91;5087994;28;20162;-64
2023/07/06 03:19:08;;;;;;;18.45;11.40;;;;;;;25.49;49.86;100164.75;5072033;28;20033;-63
2023/07/06 03:21:34;;;;;;;17.88;10.90;;;;;;;26.13;48.93;100202.53;5054510;28;20040;-63
2023/07/06 03:24:00;;;;;;;15.68;10.85;;;;;;;26.48;47.87;100193.91;5072279;28;20043;-63
2023/07/06 03:26:26;;;;;;;19.27;10.70;;;;;;;26.82;46.74;100198.34;5070816;28;20433;-63
2023/07/06 03:28:52;;;;;;;14.60;10.10;;;;;;;26.87;46.08;100160.09;5072082;28;20173;-63
2023/07/06 03:31:19;;;;;;;12.80;11.20;;;;;;;27.21;45.78;100174.38;5072404;28;20024;-63
2023/07/06 03:33:45;;;;;;;16.13;10.30;;;;;;;27.64;44.92;100194.72;5074907;28;20123;-64
2023/07/06 03:36:11;;;;;;;12.90;10.20;;;;;;;28.04;43.67;100196.97;5075265;28;20455;-64
2023/07/06 03:38:37;;;;;;;14.82;10.65;;;;;;;28.49;42.34;100178.41;5076176;28;20036;-62
2023/07/06 03:41:03;;;;;;;14.57;10.07;;;;;;;29.01;41.83;100202.66;5076736;28;20032;-61
2023/07/06 03:43:29;;;;;;;16.67;9.60;;;;;;;29.30;40.87;100189.00;5074861;28;20036;-63
2023/07/06 03:45:55;;;;;;;18.55;9.75;;;;;;;29.58;40.15;100183.88;5075901;28;20036;-62
2023/07/06 03:48:21;;;;;;;18.67;9.23;;;;;;;29.75;40.33;100176.50;5074757;28;20035;-63
2023/07/06 03:50:53;;;;;;;14.30;8.98;;;;;;;30.08;39.66;100193.50;5075552;28;20111;-63
2023/07/06 03:53:20;;;;;;;14.20;9.48;;;;;;;30.33;38.98;100190.41;5075938;28;20033;-62
2023/07/06 03:55:46;;;;;;;11.32;9.45;;;;;;;30.47;38.30;100157.81;5075015;28;20032;-63
2023/07/06 03:58:12;;;;;;;12.95;9.57;;;;;;;30.89;37.49;100180.66;5076588;28;20459;-63
2023/07/06 04:00:38;;;;;;;15.18;9.35;;;;;;;31.10;36.95;100154.16;5075551;28;20032;-63
2023/07/06 04:03:05;;;;;;;79.55;12.40;;;;;;;31.68;35.87;100187.09;5075758;28;20048;-62
2023/07/06 04:05:36;;;;;;;22.75;9.40;;;;;;;32.13;35.14;100181.59;5074311;28;20044;-63
2023/07/06 04:08:06;;;;;;;15.40;8.85;;;;;;;32.56;34.37;100181.81;5093789;28;20118;-63
2023/07/06 04:10:32;;;;;;;18.13;10.10;;;;;;;33.22;33.09;100183.47;5095963;28;20123;-63
2023/07/06 04:12:58;;;;;;;11.85;9.55;;;;;;;33.81;31.62;100178.84;5095011;28;20032;-64
2023/07/06 04:15:23;;;;;;;30.70;10.15;;;;;;;34.37;30.91;100180.16;5095370;28;20092;-63
2023/07/06 04:17:52;;;;;;;20.45;9.63;;;;;;;34.83;30.13;100182.16;5095469;28;20040;-63
2023/07/06 04:20:28;;;;;;;16.23;9.70;;;;;;;35.47;29.05;100184.63;5096091;28;20053;-64
2023/07/06 04:22:56;;;;;;;12.80;9.55;;;;;;;35.95;28.27;100181.41;5077941;28;20110;-65
2023/07/06 04:25:26;;;;;;;18.45;10.07;;;;;;;36.28;27.56;100178.19;5073970;28;20436;-63
2023/07/06 04:27:52;;;;;;;15.88;9.88;;;;;;;36.83;27.18;100189.28;5074946;28;20396;-64
2023/07/06 04:30:20;;;;;;;16.08;9.45;;;;;;;37.12;26.93;100187.63;5075687;28;20032;-64
2023/07/06 04:32:48;;;;;;;15.90;8.93;;;;;;;37.66;26.20;100190.47;5091045;28;20085;-63
2023/07/06 04:35:18;;;;;;;13.90;9.50;;;;;;;38.27;25.40;100188.00;5094318;28;20027;-64
2023/07/06 04:37:45;;;;;;;14.68;9.30;;;;;;;38.83;23.61;100161.13;5093340;28;20039;-64
2023/07/06 04:40:13;;;;;;;14.18;9.15;;;;;;;39.37;23.12;100163.53;5095315;28;20118;-63
2023/07/06 04:42:43;;;;;;;17.40;10.40;;;;;;;40.15;22.18;100190.81;5095227;28;20886;-63
2023/07/06 04:45:11;;;;;;;13.38;8.63;;;;;;;40.81;21.48;100194.38;5085565;28;20025;-63
2023/07/06 04:47:39;;;;;;;11.57;8.65;;;;;;;41.34;20.65;100184.25;5074640;28;20024;-63
2023/07/06 04:50:06;;;;;;;14.85;9.70;;;;;;;41.61;20.20;100202.91;5074862;28;20056;-63
2023/07/06 04:52:33;;;;;;;10.95;9.32;;;;;;;41.95;20.18;100177.19;5075930;28;20036;-63
2023/07/06 04:54:59;;;;;;;12.23;10.52;;;;;;;42.30;19.77;100194.97;5074854;28;20398;-63
2023/07/06 04:57:25;;;;;;;16.95;10.35;;;;;;;42.23;19.57;100188.19;5075376;28;20033;-64
2023/07/06 04:59:51;;;;;;;16.27;10.32;;;;;;;42.41;19.43;100187.00;5075073;28;20051;-64
2023/07/06 05:02:17;;;;;;;13.20;9.90;;;;;;;42.77;19.18;100181.41;5074888;28;20028;-64
2023/07/06 05:04:42;;;;;;;12.88;9.98;;;;;;;43.43;18.48;100188.72;5073153;28;20111;-64
2023/07/06 05:07:11;;;;;;;15.18;9.95;;;;;;;44.28;17.92;100191.69;5074177;28;20067;-64
2023/07/06 05:09:40;;;;;;;11.77;9.57;;;;;;;44.68;17.08;100188.38;5074179;28;20087;-63
2023/07/06 05:12:07;;;;;;;16.98;10.25;;;;;;;44.44;17.03;100169.31;5075271;28;20029;-63
2023/07/06 05:14:34;;;;;;;13.95;9.63;;;;;;;44.50;17.30;100181.22;5074288;28;20032;-64
2023/07/06 05:17:03;;;;;;;11.93;9.18;;;;;;;44.93;16.87;100187.66;5073474;28;20081;-64
2023/07/06 05:19:29;;;;;;;11.98;9.18;;;;;;;45.39;16.39;100170.69;5074032;28;20028;-65
2023/07/06 05:21:57;;;;;;;11.80;9.07;;;;;;;46.14;15.49;100177.94;5077782;28;20459;-64
2023/07/06 05:24:24;;;;;;;14.15;9.48;;;;;;;46.37;15.59;100185.03;5072997;28;20060;-65
2023/07/06 05:26:50;;;;;;;9.63;8.23;;;;;;;46.29;15.55;100176.34;5087152;28;20055;-62
2023/07/06 05:29:15;;;;;;;12.35;8.18;;;;;;;46.69;15.35;100174.66;5093919;28;20028;-63
2023/07/06 05:31:42;;;;;;;9.68;7.35;;;;;;;47.06;14.76;100182.13;5093965;28;21082;-63
2023/07/06 05:34:08;;;;;;;9.80;7.35;;;;;;;47.09;14.78;100177.75;5094337;28;20032;-63
2023/07/06 05:36:36;;;;;;;8.15;7.13;;;;;;;47.38;14.34;100175.69;5093808;28;20024;-62
2023/07/06 05:39:06;;;;;;;8.15;7.03;;;;;;;48.17;13.55;100175.88;5093972;28;20069;-63
2023/07/06 05:41:32;;;;;;;9.10;6.88;;;;;;;48.83;13.10;100173.19;5092570;28;20024;-62
2023/07/06 05:43:58;;;;;;;8.25;6.65;;;;;;;49.13;12.60;100175.31;5093576;28;20036;-62
2023/07/06 05:46:25;;;;;;;7.60;6.80;;;;;;;48.84;13.03;100180.50;5088914;28;20061;-62
2023/07/06 05:48:51;;;;;;;9.15;6.90;;;;;;;48.85;12.84;100165.09;5075010;28;20115;-62
2023/07/06 05:51:17;;;;;;;6.65;5.95;;;;;;;49.12;12.64;100163.16;5072211;28;20491;-63
2023/07/06 05:53:43;;;;;;;6.43;5.80;;;;;;;49.60;11.84;100155.41;5073631;28;20029;-62
2023/07/06 05:56:09;;;;;;;6.82;5.85;;;;;;;50.19;11.58;100158.66;5072661;28;20104;-61
2023/07/06 05:58:35;;;;;;;8.55;6.47;;;;;;;50.37;11.19;100127.56;5070802;28;20333;-60
2023/07/06 06:01:02;;;;;;;6.95;6.00;;;;;;;50.62;10.99;100151.88;5072242;28;20062;-61
2023/07/06 06:03:28;;;;;;;7.47;6.18;;;;;;;50.69;10.83;100146.25;5073097;28;20029;-63
2023/07/06 06:05:55;;;;;;;6.60;5.78;;;;;;;51.10;10.17;100146.22;5072046;28;20127;-65
2023/07/06 06:08:21;;;;;;;9.02;6.32;;;;;;;51.66;9.95;100148.31;5073391;28;20071;-62
2023/07/06 06:10:50;;;;;;;7.60;5.97;;;;;;;52.00;9.68;100144.41;5066472;28;20376;-62
2023/07/06 06:13:16;;;;;;;9.45;5.88;;;;;;;51.97;9.02;100137.44;5069523;28;20042;-63
2023/07/06 06:15:41;;;;;;;9.73;6.18;;;;;;;52.47;9.06;100133.16;5072793;28;20450;-63
2023/07/06 06:18:07;;;;;;;7.05;6.10;;;;;;;53.01;8.44;100132.38;5072671;28;20112;-68
2023/07/06 06:20:32;;;;;;;7.13;6.43;;;;;;;53.38;8.17;100139.78;5072341;28;20445;-62
2023/07/06 06:22:59;;;;;;;6.63;5.95;;;;;;;53.55;7.89;100148.72;5071640;28;20055;-61
2023/07/06 06:25:24;;;;;;;8.02;6.78;;;;;;;53.90;8.30;100138.41;5076174;28;20041;-63
2023/07/06 06:27:50;;;;;;;7.35;6.57;;;;;;;54.12;7.93;100136.28;5073488;28;20086;-61
2023/07/06 06:30:16;;;;;;;8.95;6.78;;;;;;;54.41;8.16;100136.16;5066824;28;20033;-61
2023/07/06 06:33:01;;;;;;;8.90;6.72;;;;;;;54.60;7.26;100131.09;5052629;28;20040;-61
2023/07/06 06:35:28;;;;;;;7.68;6.53;;;;;;;54.51;7.16;100145.91;5061802;28;20494;-59
2023/07/06 06:37:57;;;;;;;7.35;6.47;;;;;;;54.05;7.10;100130.59;5073025;28;20043;-61
2023/07/06 06:40:24;;;;;;;7.78;6.90;;;;;;;54.06;7.31;100137.94;5072850;28;20028;-60
2023/07/06 06:42:50;;;;;;;9.23;7.03;;;;;;;54.26;7.63;100152.56;5072301;28;20028;-60
2023/07/06 06:45:18;;;;;;;7.70;6.90;;;;;;;54.21;7.61;100121.50;5077144;28;20032;-62
2023/07/06 06:47:44;;;;;;;7.43;6.80;;;;;;;54.42;7.47;100143.50;5091921;28;20103;-61
2023/07/06 06:50:14;;;;;;;10.65;6.55;;;;;;;54.46;7.33;100152.06;5092814;28;20032;-61
2023/07/06 06:52:40;;;;;;;7.78;6.97;;;;;;;54.48;7.31;100141.00;5092494;28;20023;-60
2023/07/06 06:55:07;;;;;;;8.70;6.95;;;;;;;53.73;7.62;100148.69;5089801;28;20052;-61
2023/07/06 06:57:33;;;;;;;9.02;7.57;;;;;;;52.85;7.92;100133.63;5083499;28;20075;-62
2023/07/06 06:59:59;;;;;;;8.30;6.75;;;;;;;52.34;7.96;100130.69;5069264;28;20025;-62
2023/07/06 07:02:25;;;;;;;8.73;6.40;;;;;;;53.19;7.74;100146.72;5072722;28;20025;-62
2023/07/06 07:04:51;;;;;;;12.85;7.32;;;;;;;53.76;7.61;100137.22;5072843;28;20045;-63
2023/07/06 07:07:17;;;;;;;7.60;6.70;;;;;;;53.21;7.42;100142.22;5071863;28;20438;-60
2023/07/06 07:09:44;;;;;;;7.95;7.03;;;;;;;52.79;7.90;100138.94;5082044;28;20032;-62
2023/07/06 07:12:11;;;;;;;9.25;8.05;;;;;;;52.58;7.96;100145.44;5092562;28;20459;-62
2023/07/06 07:14:38;;;;;;;10.10;7.43;;;;;;;52.18;8.22;100138.75;5069788;28;20032;-62
2023/07/06 07:17:07;;;;;;;8.30;7.03;;;;;;;52.25;8.22;100133.06;5072065;28;20025;-62
2023/07/06 07:19:34;;;;;;;9.65;7.60;;;;;;;52.94;7.96;100151.19;5072383;28;20025;-57
2023/07/06 07:22:00;;;;;;;10.75;8.35;;;;;;;53.62;7.32;100165.88;5079053;28;20044;-61
2023/07/06 07:24:29;;;;;;;11.27;7.90;;;;;;;54.16;7.31;100153.44;5073035;28;20025;-60
2023/07/06 07:26:58;;;;;;;11.38;7.55;;;;;;;55.18;6.69;100156.47;5057339;28;20325;-61
2023/07/06 07:29:24;;;;;;;10.18;8.40;;;;;;;55.44;6.02;100149.25;5056562;28;20029;-60
2023/07/06 07:31:51;;;;;;;11.63;8.95;;;;;;;55.63;5.97;100162.19;5072245;28;20032;-61
2023/07/06 07:34:17;;;;;;;8.95;8.15;;;;;;;55.59;6.36;100161.41;5071782;28;20052;-61
2023/07/06 07:36:44;;;;;;;8.77;7.72;;;;;;;55.60;6.31;100162.22;5072072;28;20043;-60
2023/07/06 07:39:10;;;;;;;8.65;7.90;;;;;;;55.54;6.03;100169.66;5071744;28;20035;-58
2023/07/06 07:41:35;;;;;;;9.40;8.43;;;;;;;55.93;5.48;100156.91;5089086;28;20036;-60
2023/07/06 07:44:01;;;;;;;11.00;8.02;;;;;;;56.40;5.56;100167.81;5089845;28;20412;-62
2023/07/06 07:46:31;;;;;;;8.85;8.05;;;;;;;56.61;5.33;100169.53;5071665;28;20174;-62
2023/07/06 07:48:57;;;;;;;8.40;7.80;;;;;;;56.51;5.70;100156.16;5072991;28;20050;-63
2023/07/06 07:51:26;;;;;;;9.98;8.90;;;;;;;56.36;5.52;100182.25;5088148;28;20063;-62
2023/07/06 07:53:54;;;;;;;10.75;8.98;;;;;;;56.05;5.86;100181.41;5088055;28;20059;-61
2023/07/06 07:56:22;;;;;;;8.95;8.15;;;;;;;55.99;5.21;100169.56;5091085;28;20039;-60
2023/07/06 07:58:48;;;;;;;9.05;8.13;;;;;;;55.64;5.33;100177.34;5091052;28;20039;-61
2023/07/06 08:01:20;;;;;;;8.95;8.25;;;;;;;55.42;5.88;100186.16;5083842;28;20032;-60
2023/07/06 08:03:46;;;;;;;9.10;8.23;;;;;;;55.29;6.03;100156.38;5051945;28;20036;-60
2023/07/06 08:06:16;;;;;;;10.02;8.25;;;;;;;55.44;6.29;100175.09;5067193;28;20061;-61
2023/07/06 08:08:43;;;;;;;8.60;7.90;;;;;;;55.36;6.33;100182.97;5050766;28;20086;-60
2023/07/06 08:11:12;;;;;;;9.48;8.68;;;;;;;54.63;6.66;100191.25;5083241;28;20032;-59
2023/07/06 08:13:38;;;;;;;8.52;7.68;;;;;;;53.37;7.26;100173.28;5089770;28;20413;-59
2023/07/06 08:16:05;;;;;;;7.85;7.15;;;;;;;51.77;7.91;100166.28;5071221;28;20031;-61
2023/07/06 08:18:32;;;;;;;7.75;6.93;;;;;;;49.88;9.03;100168.41;5071334;28;20037;-61
2023/07/06 08:21:01;;;;;;;9.27;7.07;;;;;;;46.70;11.76;100162.16;5075487;28;20445;-59
2023/07/06 08:23:28;;;;;;;8.38;6.53;;;;;;;44.11;13.52;100173.72;5076308;28;20059;-59
2023/07/06 08:25:54;;;;;;;10.27;6.68;;;;;;;43.18;13.98;100134.94;5075718;28;20570;-62
2023/07/06 08:28:24;;;;;;;7.07;6.38;;;;;;;42.14;14.99;100172.13;5075156;28;20029;-63
2023/07/06 08:30:51;;;;;;;7.72;6.90;;;;;;;40.65;17.17;100138.59;5078168;28;20375;-63
2023/07/06 08:33:20;;;;;;;11.40;7.35;;;;;;;39.66;17.93;100134.38;5074020;28;20040;-61
2023/07/06 08:35:47;;;;;;;8.65;6.40;;;;;;;38.90;18.70;100167.16;5074970;28;20028;-62
2023/07/06 08:38:13;;;;;;;7.25;6.55;;;;;;;38.07;19.86;100164.78;5075555;28;20067;-63
2023/07/06 08:40:41;;;;;;;9.50;6.38;;;;;;;37.37;20.34;100177.31;5074746;28;20123;-63
2023/07/06 08:43:19;;;;;;;8.57;7.30;;;;;;;36.99;21.15;100167.63;5073893;28;20414;-59
2023/07/06 08:45:49;;;;;;;10.57;7.63;;;;;;;36.28;22.20;100167.06;5073190;28;20039;-62
2023/07/06 08:48:25;;;;;;;11.02;7.50;;;;;;;35.90;22.42;100161.94;5072461;28;20086;-59
2023/07/06 08:50:56;;;;;;;10.20;7.35;;;;;;;35.81;22.67;100164.47;5078710;28;20032;-57
2023/07/06 08:53:27;;;;;;;9.85;7.25;;;;;;;35.71;23.50;100154.22;5094409;28;20067;-61
2023/07/06 08:55:54;;;;;;;12.20;8.23;;;;;;;35.43;23.11;100170.44;5093393;28;20123;-62
2023/07/06 08:58:27;;;;;;;10.13;8.25;;;;;;;35.33;23.05;100154.59;5092371;28;20464;-61
2023/07/06 09:01:05;;;;;;;10.38;7.57;;;;;;;34.66;23.71;100157.41;5075009;28;20094;-63
2023/07/06 09:03:39;;;;;;;11.35;7.05;;;;;;;34.45;24.54;100156.53;5076803;28;20028;-58
2023/07/06 09:06:06;;;;;;;7.93;7.10;;;;;;;34.45;24.63;100148.22;5073848;28;20052;-63
2023/07/06 09:08:31;;;;;;;9.23;6.97;;;;;;;34.46;24.72;100155.44;5074433;28;20072;-63
2023/07/06 09:10:57;;;;;;;8.55;7.75;;;;;;;34.56;24.41;100140.75;5073251;28;20056;-62
2023/07/06 09:13:25;;;;;;;7.88;6.55;;;;;;;34.53;24.23;100147.69;5075140;28;20056;-62
2023/07/06 09:16:03;;;;;;;11.02;6.05;;;;;;;34.49;23.50;100152.97;5058572;28;20419;-62
2023/07/06 09:18:30;;;;;;;7.15;6.45;;;;;;;34.20;24.55;100156.22;5074049;28;20043;-64
2023/07/06 09:21:00;;;;;;;8.10;6.60;;;;;;;34.12;24.96;100142.88;5073457;28;20047;-63
2023/07/06 09:23:26;;;;;;;8.43;6.55;;;;;;;33.87;25.71;100140.81;5074092;28;20039;-55
2023/07/06 09:25:54;;;;;;;7.78;6.70;;;;;;;33.83;25.96;100157.19;5073700;28;20033;-57
2023/07/06 09:28:23;;;;;;;10.68;7.00;;;;;;;33.99;25.76;100140.59;5077674;28;20072;-58
2023/07/06 09:31:04;;;;;;;8.13;6.70;;;;;;;34.30;25.09;100137.91;5077137;28;20151;-56
2023/07/06 09:33:30;;;;;;;7.82;7.07;;;;;;;34.31;25.04;100106.22;5073787;28;20037;-56
2023/07/06 09:35:57;;;;;;;8.30;7.35;;;;;;;34.30;25.35;100127.59;5073976;28;20051;-59
2023/07/06 09:38:27;;;;;;;9.35;7.15;;;;;;;34.17;25.30;100125.38;5073630;28;20076;-53
2023/07/06 09:40:53;;;;;;;8.25;7.38;;;;;;;34.12;25.63;100126.19;5073659;28;20067;-55
2023/07/06 09:43:21;;;;;;;13.35;7.50;;;;;;;34.13;25.84;100136.19;5079050;28;20039;-57
2023/07/06 09:45:48;;;;;;;8.98;7.10;;;;;;;34.14;25.78;100135.09;5077002;28;20121;-58
2023/07/06 09:48:37;;;;;;;13.88;7.13;;;;;;;34.40;25.55;100143.47;5073443;28;20063;-64
2023/07/06 09:51:11;;;;;;;7.53;6.80;;;;;;;34.01;26.30;100127.28;5073316;28;20024;-62
2023/07/06 09:53:54;;;;;;;8.00;7.20;;;;;;;33.90;26.21;100134.72;5080893;28;20070;-62
2023/07/06 09:56:20;;;;;;;10.27;7.63;;;;;;;33.41;26.90;100122.00;5093197;28;20078;-59
2023/07/06 09:58:48;;;;;;;8.02;7.22;;;;;;;33.07;27.36;100101.00;5080463;28;20115;-59
2023/07/06 10:01:42;;;;;;;9.95;7.72;;;;;;;33.51;26.82;100133.16;5072380;28;20064;-59
2023/07/06 10:04:38;;;;;;;8.48;6.97;;;;;;;33.50;27.22;100125.94;5072691;28;20029;-61
2023/07/06 10:07:33;;;;;;;10.02;7.05;;;;;;;33.57;27.17;100122.94;5073035;28;20475;-53
2023/07/06 10:10:17;;;;;;;8.88;7.30;;;;;;;33.96;26.30;100117.00;5052917;28;20356;-59
2023/07/06 10:12:53;;;;;;;11.50;7.60;;;;;;;33.85;26.16;100085.56;5077929;28;20032;-61
2023/07/06 10:15:25;;;;;;;7.82;7.03;;;;;;;33.96;26.68;100105.88;5077973;28;20043;-61
2023/07/06 10:18:23;;;;;;;10.48;7.05;;;;;;;34.24;25.73;100112.03;5072378;28;20492;-61
2023/07/06 10:20:54;;;;;;;8.98;6.50;;;;;;;34.00;25.35;100107.00;5067483;28;20045;-59
2023/07/06 10:23:40;;;;;;;7.93;6.40;;;;;;;33.84;25.29;100113.59;5077353;28;20102;-60
2023/07/06 10:26:18;;;;;;;7.57;6.80;;;;;;;33.46;25.45;100120.13;5091514;28;20039;-60
2023/07/06 10:29:18;;;;;;;9.15;6.85;;;;;;;33.32;25.83;100119.75;5090443;28;20056;-57
2023/07/06 10:31:51;;;;;;;7.15;6.28;;;;;;;32.96;25.90;100097.31;5054798;28;20032;-62
2023/07/06 10:34:47;;;;;;;7.63;6.43;;;;;;;33.35;25.85;100121.97;5072279;28;20086;-60
2023/07/06 10:37:16;;;;;;;9.18;6.68;;;;;;;33.22;25.28;100119.66;5053885;28;20135;-60
2023/07/06 10:39:42;;;;;;;7.18;6.40;;;;;;;33.18;25.36;100118.53;5087387;28;20029;-60
2023/07/06 10:42:25;;;;;;;10.68;7.03;;;;;;;33.32;24.90;100119.75;5061070;28;20044;-54
2023/07/06 10:44:58;;;;;;;9.10;6.95;;;;;;;33.13;25.38;100110.19;5058383;28;20020;-60
2023/07/06 10:47:33;;;;;;;11.20;7.30;;;;;;;32.93;25.77;100117.28;5057064;28;20024;-57
2023/07/06 10:50:26;;;;;;;7.13;6.45;;;;;;;32.73;25.98;100112.38;5052892;28;20045;-60
2023/07/06 10:52:57;;;;;;;9.73;7.50;;;;;;;32.69;25.99;100112.06;5052143;28;20139;-59
2023/07/06 10:55:26;;;;;;;8.20;7.43;;;;;;;32.63;26.21;100102.06;5052253;28;20122;-58
2023/07/06 10:57:58;;;;;;;8.70;7.65;;;;;;;32.67;26.39;100105.97;5072376;28;20386;-59
2023/07/06 11:00:37;;;;;;;8.02;7.18;;;;;;;32.77;26.15;100100.47;5080075;28;20042;-55
2023/07/06 11:03:05;;;;;;;8.18;7.32;;;;;;;32.60;25.95;100094.28;5072274;28;20051;-58
2023/07/06 11:05:50;;;;;;;11.10;7.53;;;;;;;32.62;25.79;100094.84;5071247;28;20150;-58
2023/07/06 11:08:35;;;;;;;8.38;7.65;;;;;;;32.69;25.59;100095.44;5072030;28;20051;-63
2023/07/06 11:11:02;;;;;;;;;;;;;;;33.28;24.77;100099.19;5060836;28;20029;-59
2023/07/06 11:13:28;;;;;;;9.25;7.18;;;;;;;33.05;24.08;100081.00;5086695;28;19918;-57
2023/07/06 11:15:56;;;;;;;7.90;7.10;;;;;;;32.92;24.45;100090.63;5075656;28;20359;-57
2023/07/06 11:18:44;;;;;;;8.30;7.30;;;;;;;33.05;24.59;100092.09;5071587;28;20032;-60
2023/07/06 11:21:10;;;;;;;10.10;7.30;;;;;;;32.97;24.63;100078.75;5071933;28;20103;-55
2023/07/06 11:23:38;;;;;;;9.65;7.82;;;;;;;33.03;24.26;100086.81;5071711;28;20033;-60
2023/07/06 11:26:08;;;;;;;10.88;7.95;;;;;;;33.01;24.53;100086.25;5072547;28;20355;-58
2023/07/06 11:28:34;;;;;;;11.70;7.38;;;;;;;32.93;24.19;100072.91;5087719;28;20031;-59
2023/07/06 11:31:19;;;;;;;11.80;7.47;;;;;;;33.02;24.71;100081.56;5074946;28;20418;-58